Elliniko, Greece

6:01 PM EEST on September 01, 2015 (GMT +0300)
SV1GST - SOURMENA HELLINIKO | | Change Station
CLOSE
Current Station
Personal Weather Station
Location: Athina, Attiki
Elevation: 300 ft
Nearby Weather Stations

Elev 300 ft 37.89 °N, 23.75 °E | Updated 5 seconds ago

Clear
Clear
86.6 °F
Feels Like 85 °F
N
8.0
Wind Variable Wind from ESE
Gusts 11.0 mph

Today
High -- | Low -- °F
--% Chance of Precip.
Yesterday
High -- | Low -- °F
Precip. -- in
6:54 AM 7:55 PM
Waning Gibbous, 88% visible
Pressure 29.86 in
Visibility -9999.0 miles
Clouds
Heat Index 85 °F
Dew Point 55 °F
Humidity 34%
Rainfall 0.00 in
Snow Depth Not available.
UV Not available.
Pollen Not available.
Air Quality Not available.
Flu Activity Not available.
METAR LGEL 011450Z 19010KT CAVOK 31/17 Q1011
Pressure 29.86 in
Visibility -9999.0 miles
Clouds
Heat Index 85 °F
Dew Point 55 °F
Humidity 34%
Rainfall 0.00 in
Snow Depth Not available.
UV Not available.
Pollen Not available.
Air Quality Not available.
Flu Activity Not available.
METAR LGEL 011450Z 19010KT CAVOK 31/17 Q1011

10-Day Weather Forecast

×

Almanac

Astronomy

Sep. 01, 2015 Rise Set
Actual Time
Civil Twilight
Nautical Twilight
Astronomical Twilight
Moon
Length of Visible Light
Length of Day
Tomorrow will be .
, % of the Moon is Illuminated

Today's Extremes

Country Highs Country Lows

Community

WunderPhotos

Upload Photos

1,851,520 photos uploaded!

WunderBlogs® & News

Nearby

Air Quality

  Air Quality AQ Index Pollutant
Not available.

Snow Depth

Station Depth Elevation

Earthquake Activity

City Distance Mag. Time & Date
Minimum magnitude displayed is 2.5.

Coastal Water Temperatures

Place Temperature

Stations

Nearby Weather Stations

Station Location Temp. Windchill Dew Point Humidity Wind Precip. Elev Updated Type